Maverick Xl — DALK — position and weather

sailwx.info

Track history (hours):
 
Tides and Currents Weather Stations Pressure Air Temp Water Temp Dewpoint Dewpoint Depression Visibility Wind Speed Wind Dir Waves Ship Positions

Maverick Xl

Last reported at 2018-Feb-11 17:21 UTC. Time now 2018-Feb-19 10:08 UTC.
Position N 24°11' W 076°27'.

Length 13 m; draft 1.2 m.

Type: Pleasure craft. MMSI: 211504360.

Date/timePositionNaut miles runAvg speedWind from/ knotsBaromVisibWave heightAir tempDewpointWater temp
2018-Feb-11 17:21N 24°11' W 076°27'0 0.0
2018-Feb-11 17:00N 24°11' W 076°27'0 0.0
2018-Feb-11 16:30N 24°11' W 076°27'1 1.2
2018-Feb-11 16:00N 24°10' W 076°28'1 0.0
2018-Feb-10 22:34N 24°11' W 076°27'0 0.0
2018-Feb-10 22:28N 24°11' W 076°27'0 0.1
2018-Feb-10 22:00N 24°11' W 076°28'1 1.8
2018-Feb-10 21:28N 24°10' W 076°27'0 0.1
2018-Feb-10 20:58N 24°10' W 076°27'1 2.9
2018-Feb-10 20:30N 24°11' W 076°28'2 4.5
2018-Feb-10 20:00N 24°12' W 076°30'2 4.6
2018-Feb-10 19:30N 24°14' W 076°31'1 0.5
2018-Feb-10 17:04N 24°15' W 076°32'1 4.2
2018-Feb-10 16:56N 24°16' W 076°32'  
2018-Feb-03 12:11N 25°08' W 077°23'47 7.2
2018-Feb-03 05:40N 25°28' W 078°09'  
Track history (hours):
 
Tides and Currents Weather Stations Pressure Air Temp Water Temp Dewpoint Dewpoint Depression Visibility Wind Speed Wind Dir Waves Ship Positions

Maverick Xl

Last reported at 2018-Feb-11 17:21 UTC. Time now 2018-Feb-19 10:08 UTC.
Position N 24°11' W 076°27'.

Length 13 m; draft 1.2 m.

Type: Pleasure craft. MMSI: 211504360.

Date/timePositionNaut miles runAvg speedWind from/ knotsBaromVisibWave heightAir tempDewpointWater temp
2018-Feb-11 17:21N 24°11' W 076°27'0 0.0
2018-Feb-11 17:00N 24°11' W 076°27'0 0.0
2018-Feb-11 16:30N 24°11' W 076°27'1 1.2
2018-Feb-11 16:00N 24°10' W 076°28'1 0.0
2018-Feb-10 22:34N 24°11' W 076°27'0 0.0
2018-Feb-10 22:28N 24°11' W 076°27'0 0.1
2018-Feb-10 22:00N 24°11' W 076°28'1 1.8
2018-Feb-10 21:28N 24°10' W 076°27'0 0.1
2018-Feb-10 20:58N 24°10' W 076°27'1 2.9
2018-Feb-10 20:30N 24°11' W 076°28'2 4.5
2018-Feb-10 20:00N 24°12' W 076°30'2 4.6
2018-Feb-10 19:30N 24°14' W 076°31'1 0.5
2018-Feb-10 17:04N 24°15' W 076°32'1 4.2
2018-Feb-10 16:56N 24°16' W 076°32'  
2018-Feb-03 12:11N 25°08' W 077°23'47 7.2
2018-Feb-03 05:40N 25°28' W 078°09'  

Dump ship's entire track history